Terminal Aerodrome Forecast
Issued by NWS Cleveland, OH

Home | Current Version | Previous Version | Graphics & Text | Print | Product List | Glossary On
Versions: 1 2 3 4 5 6 7 8 9 10 11 12 13 14 15
000
FTUS41 KCLE 292340
TAFMFD
TAF
KMFD 292340Z 3000/3024 21005KT P6SM VCSH SCT080 BKN150
      TEMPO 3000/3003 VRB05KT 5SM -SHRA BKN060 OVC100
     FM300300 14004KT P6SM VCSH BKN070 OVC100
     FM300900 18005KT 6SM BR VCSH BKN060 OVC080
     FM301400 25005KT P6SM VCSH BKN060 OVC080
     FM302200 22005KT P6SM SCT060 BKN200=

USA.gov is the U.S. government's official web portal to all federal, state and local government web resources and services.